createdAt,value
2018-05-18T18:51:54.989Z,9.13
2018-05-18T18:54:22.522Z,8.97
2018-05-18T18:56:50.023Z,11.07
2018-05-18T18:59:17.526Z,10.50
2018-05-18T19:01:45.005Z,12.50
2018-05-18T19:04:12.495Z,10.67
2018-05-18T19:06:39.976Z,10.30
2018-05-18T19:09:08.266Z,9.80
2018-05-18T19:11:36.510Z,10.60
2018-05-18T19:14:04.010Z,10.73
2018-05-18T19:16:31.484Z,11.10
2018-05-18T19:18:59.837Z,12.47
2018-05-18T19:21:27.328Z,10.20
2018-05-18T19:23:54.830Z,11.10
2018-05-18T19:26:22.308Z,9.27
2018-05-18T19:28:50.581Z,9.60
2018-05-18T19:31:18.847Z,11.17
2018-05-18T19:33:47.523Z,10.90
2018-05-18T19:36:15.025Z,11.13
2018-05-18T19:38:42.512Z,11.53
2018-05-18T19:41:10.106Z,11.03
2018-05-18T19:43:38.443Z,13.00
2018-05-18T19:46:08.486Z,12.23
2018-05-18T19:48:36.991Z,14.87
2018-05-18T19:51:04.690Z,15.63
2018-05-18T19:53:32.796Z,13.73
2018-05-18T19:56:00.423Z,16.93
2018-05-18T19:58:27.900Z,14.97
2018-05-18T20:00:55.417Z,15.70
2018-05-18T20:03:23.673Z,14.37
2018-05-18T20:05:51.218Z,13.60
2018-05-18T20:08:18.697Z,12.97
2018-05-18T20:10:46.956Z,12.17
2018-05-18T20:13:14.578Z,11.57
2018-05-18T20:15:42.057Z,11.67
2018-05-18T20:18:09.552Z,10.70
2018-05-18T20:20:37.822Z,9.83
2018-05-18T20:23:06.097Z,9.70
2018-05-18T20:25:33.573Z,9.73
2018-05-18T20:28:01.872Z,11.07
2018-05-18T20:30:29.344Z,9.20
2018-05-18T20:32:56.869Z,9.40
2018-05-18T20:35:25.108Z,9.80
2018-05-18T20:37:52.626Z,9.17
2018-05-18T20:40:20.096Z,9.43
2018-05-18T20:42:47.618Z,8.93
2018-05-18T20:45:15.861Z,9.07
2018-05-18T20:47:43.334Z,9.90
2018-05-18T20:50:10.894Z,9.33
2018-05-18T20:52:39.157Z,10.90
2018-05-18T20:55:06.671Z,7.90
2018-05-18T20:57:34.151Z,9.80
2018-05-18T21:00:01.703Z,9.50
2018-05-18T21:02:29.174Z,8.60
2018-05-18T21:04:56.653Z,8.50
2018-05-18T21:07:25.472Z,11.87
2018-05-18T21:09:53.735Z,9.93
2018-05-18T21:12:22.016Z,8.83
2018-05-18T21:14:50.270Z,9.70
2018-05-18T21:17:17.778Z,9.60
2018-05-18T21:19:45.249Z,9.87
2018-05-18T21:22:12.774Z,10.10
2018-05-18T21:24:41.019Z,8.30
2018-05-18T21:27:08.539Z,9.00
2018-05-18T21:29:36.029Z,9.00
2018-05-18T21:32:03.530Z,9.47
2018-05-18T21:34:31.765Z,8.20
2018-05-18T21:36:59.269Z,9.23
2018-05-18T21:39:27.533Z,8.83
2018-05-18T21:41:55.810Z,10.03
2018-05-18T21:44:24.100Z,10.07
2018-05-18T21:46:51.595Z,9.60
2018-05-18T21:49:19.077Z,8.20
2018-05-18T21:51:46.581Z,8.87
2018-05-18T21:54:14.068Z,9.27
2018-05-18T21:56:41.573Z,8.87
2018-05-18T21:59:09.817Z,9.43
2018-05-18T22:01:37.317Z,9.43
2018-05-18T22:04:05.566Z,8.50
2018-05-18T22:06:33.096Z,9.30
2018-05-18T22:09:00.562Z,9.30
2018-05-18T22:11:28.066Z,9.50
2018-05-18T22:13:56.313Z,10.70
2018-05-18T22:16:23.822Z,8.97
2018-05-18T22:18:51.302Z,8.63
2018-05-18T22:21:18.780Z,9.30
2018-05-18T22:23:46.284Z,9.73
2018-05-18T22:26:14.529Z,9.47
2018-05-18T22:28:42.016Z,8.83
2018-05-18T22:31:10.281Z,8.70
2018-05-18T22:33:38.521Z,9.30
2018-05-18T22:36:06.150Z,9.17
2018-05-18T22:38:33.640Z,9.70
2018-05-18T22:41:01.124Z,9.40
2018-05-18T22:43:28.620Z,9.63
2018-05-18T22:45:56.097Z,9.63
2018-05-18T22:48:23.597Z,9.77
2018-05-18T22:50:51.074Z,8.20
2018-05-18T22:53:19.337Z,9.83
2018-05-18T22:55:46.817Z,9.30
2018-05-18T22:58:15.092Z,10.70
2018-05-18T23:00:43.336Z,9.00
2018-05-18T23:03:10.862Z,8.70
2018-05-18T23:05:38.341Z,9.63
2018-05-18T23:08:05.817Z,9.37
2018-05-18T23:10:33.314Z,7.63
2018-05-18T23:13:00.787Z,8.30
2018-05-18T23:15:28.290Z,9.30
2018-05-18T23:17:55.791Z,8.60
2018-05-18T23:20:23.300Z,8.80
2018-05-18T23:22:50.771Z,9.67
2018-05-18T23:25:18.244Z,9.90
2018-05-18T23:27:46.505Z,9.00
2018-05-18T23:30:13.982Z,10.40
2018-05-18T23:32:42.251Z,10.67
2018-05-18T23:35:10.489Z,9.33
2018-05-18T23:37:37.998Z,7.83
2018-05-18T23:40:05.508Z,7.53
2018-05-18T23:42:33.000Z,8.50
2018-05-18T23:45:01.268Z,8.97
2018-05-18T23:47:28.745Z,8.10
2018-05-18T23:49:57.006Z,8.57
2018-05-18T23:52:25.276Z,8.90
2018-05-18T23:54:52.776Z,8.30
2018-05-18T23:57:20.261Z,8.57
2018-05-18T23:59:47.769Z,9.10
